Time;durP1;ratioP1;P1;durP2;ratioP2;P2;SDS_P1;SDS_P2;PMS_P1;PMS_P2;Temp;Humidity;BMP_temperature;BMP_pressure;BME280_temperature;BME280_humidity;BME280_pressure;Samples;Min_cycle;Max_cycle;Signal;HPM_P1;HPM_P2
2020/12/29 00:00:35;;;;;;;6.67;3.67;;;1.80;99.90;;;;;;5033457;28;20453;-54
2020/12/29 00:03:03;;;;;;;5.67;3.53;;;1.90;99.90;;;;;;5033720;28;20431;-53
2020/12/29 00:05:30;;;;;;;7.13;3.47;;;1.90;99.90;;;;;;5032977;28;20490;-54
2020/12/29 00:07:56;;;;;;;4.63;3.30;;;1.90;99.90;;;;;;5033004;28;21025;-53
2020/12/29 00:10:24;;;;;;;5.03;3.30;;;1.80;99.90;;;;;;5032901;28;20454;-54
2020/12/29 00:12:51;;;;;;;4.50;2.97;;;1.70;99.90;;;;;;5032910;28;20459;-53
2020/12/29 00:15:18;;;;;;;5.53;3.17;;;1.60;99.90;;;;;;5032627;28;20459;-53
2020/12/29 00:17:45;;;;;;;4.73;3.13;;;1.60;99.90;;;;;;5031836;28;20921;-53
2020/12/29 00:20:12;;;;;;;5.53;3.60;;;1.50;99.90;;;;;;5032974;28;20499;-53
2020/12/29 00:22:38;;;;;;;6.70;3.83;;;1.70;99.90;;;;;;5033106;28;20452;-54
2020/12/29 00:25:05;;;;;;;5.30;3.40;;;1.70;99.90;;;;;;5032924;28;20480;-53
2020/12/29 00:27:33;;;;;;;4.93;3.23;;;1.60;99.90;;;;;;5032397;28;20521;-54
2020/12/29 00:29:59;;;;;;;4.20;3.13;;;1.60;99.90;;;;;;5031633;28;20456;-53
2020/12/29 00:32:26;;;;;;;5.33;3.27;;;1.50;99.90;;;;;;5033085;28;20974;-53
2020/12/29 00:34:52;;;;;;;3.47;2.50;;;1.50;99.90;;;;;;5032771;28;20657;-53
2020/12/29 00:37:20;;;;;;;5.50;2.90;;;1.50;99.90;;;;;;5032811;28;20472;-53
2020/12/29 00:39:46;;;;;;;5.00;2.93;;;1.50;99.90;;;;;;5032593;28;20444;-54
2020/12/29 00:42:13;;;;;;;6.17;3.77;;;1.50;99.90;;;;;;5031184;28;20445;-53
2020/12/29 00:44:39;;;;;;;4.50;2.10;;;1.40;99.90;;;;;;5032156;28;21019;-53
2020/12/29 00:47:06;;;;;;;5.00;2.77;;;1.60;99.90;;;;;;5032582;28;20487;-54
2020/12/29 00:49:36;;;;;;;4.83;3.03;;;1.60;99.90;;;;;;5031942;28;20444;-54
2020/12/29 00:52:03;;;;;;;4.80;3.20;;;1.40;99.90;;;;;;5032679;28;20977;-53
2020/12/29 00:54:30;;;;;;;5.50;3.60;;;1.30;99.90;;;;;;5031955;28;20449;-53
2020/12/29 00:56:56;;;;;;;3.97;2.60;;;1.40;99.90;;;;;;5031948;28;20526;-53
2020/12/29 00:59:23;;;;;;;3.63;2.60;;;1.40;99.90;;;;;;5032434;28;20457;-53
2020/12/29 01:01:54;;;;;;;6.13;2.23;;;1.30;99.90;;;;;;5031802;28;20441;-53
2020/12/29 01:04:21;;;;;;;3.57;2.13;;;1.40;99.90;;;;;;5032164;28;20572;-54
2020/12/29 01:06:47;;;;;;;2.77;1.40;;;1.80;99.90;;;;;;5032004;28;20468;-53
2020/12/29 01:09:14;;;;;;;2.77;1.47;;;1.90;99.90;;;;;;5031864;28;20449;-53
2020/12/29 01:11:41;;;;;;;1.80;1.37;;;2.20;99.90;;;;;;5032015;28;20461;-53
2020/12/29 01:14:08;;;;;;;1.97;1.40;;;2.30;99.90;;;;;;5031779;28;20462;-53
2020/12/29 01:16:35;;;;;;;1.37;1.17;;;2.40;99.90;;;;;;5032207;28;21068;-53
2020/12/29 01:19:04;;;;;;;2.07;1.00;;;2.50;99.90;;;;;;5032004;28;20954;-53
2020/12/29 01:21:30;;;;;;;1.10;1.00;;;2.60;99.90;;;;;;5032071;28;20487;-54
2020/12/29 01:23:57;;;;;;;1.20;1.03;;;2.60;99.90;;;;;;5031215;28;20449;-53
2020/12/29 01:26:24;;;;;;;1.47;0.90;;;2.70;99.90;;;;;;5032036;28;20469;-53
2020/12/29 01:28:51;;;;;;;1.90;1.60;;;2.60;99.90;;;;;;5031463;28;20451;-53
2020/12/29 01:31:24;;;;;;;1.60;1.03;;;2.60;99.90;;;;;;5031922;28;20454;-53
2020/12/29 01:33:51;;;;;;;1.43;1.10;;;2.80;99.90;;;;;;5031888;28;20445;-53
2020/12/29 01:36:18;;;;;;;1.10;0.93;;;2.70;99.90;;;;;;5031433;28;20469;-53
2020/12/29 01:38:44;;;;;;;1.40;1.10;;;2.80;99.90;;;;;;5030998;28;20447;-53
2020/12/29 01:41:11;;;;;;;1.30;1.20;;;2.60;99.90;;;;;;5031549;28;20460;-53
2020/12/29 01:43:37;;;;;;;2.10;1.27;;;2.50;99.90;;;;;;5031889;28;20475;-54
2020/12/29 01:46:05;;;;;;;1.70;1.17;;;2.70;99.90;;;;;;5031301;28;20542;-53
2020/12/29 01:48:31;;;;;;;1.00;0.90;;;2.70;99.90;;;;;;5031805;28;20456;-53
2020/12/29 01:50:58;;;;;;;1.43;0.90;;;2.60;99.90;;;;;;5031768;28;20450;-53
2020/12/29 01:53:24;;;;;;;0.90;0.87;;;2.40;99.90;;;;;;5030181;28;20547;-53
2020/12/29 01:55:52;;;;;;;2.80;2.17;;;2.60;99.90;;;;;;5031063;28;20872;-53
2020/12/29 01:58:19;;;;;;;1.50;1.27;;;2.60;99.90;;;;;;5031560;28;20548;-54
2020/12/29 02:00:46;;;;;;;1.50;0.93;;;2.60;99.90;;;;;;5031435;28;20444;-53
2020/12/29 02:03:15;;;;;;;1.77;1.40;;;2.60;99.90;;;;;;5030320;28;20962;-54
2020/12/29 02:05:46;;;;;;;2.37;1.27;;;2.50;99.90;;;;;;5030963;28;20567;-53
2020/12/29 02:08:13;;;;;;;1.73;1.40;;;2.40;99.90;;;;;;5030327;28;20480;-54
2020/12/29 02:10:41;;;;;;;2.00;1.50;;;2.40;99.90;;;;;;5030774;28;20462;-54
2020/12/29 02:13:07;;;;;;;2.20;1.33;;;2.30;99.90;;;;;;5030820;28;20460;-54
2020/12/29 02:15:34;;;;;;;1.53;1.20;;;2.20;99.90;;;;;;5030866;28;20448;-54
2020/12/29 02:18:00;;;;;;;1.20;1.10;;;2.10;99.90;;;;;;5031117;28;20476;-54
2020/12/29 02:20:27;;;;;;;2.13;1.70;;;2.00;99.90;;;;;;5030464;28;20445;-54
2020/12/29 02:22:55;;;;;;;2.30;2.10;;;2.00;99.90;;;;;;5029395;28;20937;-54
2020/12/29 02:25:22;;;;;;;2.20;1.20;;;2.10;99.90;;;;;;5031039;28;20558;-54
2020/12/29 02:27:50;;;;;;;2.23;1.57;;;2.20;99.90;;;;;;5030834;28;20476;-53
2020/12/29 02:30:18;;;;;;;1.80;1.50;;;2.20;99.90;;;;;;5029348;28;20435;-53
2020/12/29 02:32:45;;;;;;;1.93;1.40;;;2.20;99.90;;;;;;5029858;28;20958;-53
2020/12/29 02:35:15;;;;;;;1.53;1.40;;;2.00;99.90;;;;;;5031078;28;20484;-54
2020/12/29 02:37:42;;;;;;;1.50;1.40;;;1.90;99.90;;;;;;5029776;28;20470;-54
2020/12/29 02:40:09;;;;;;;1.70;1.33;;;1.90;99.90;;;;;;5030498;28;20502;-53
2020/12/29 02:42:36;;;;;;;2.30;1.40;;;2.00;99.90;;;;;;5030548;28;20453;-53
2020/12/29 02:45:02;;;;;;;2.57;1.53;;;2.00;99.90;;;;;;5030303;28;20484;-54
2020/12/29 02:47:29;;;;;;;2.70;1.70;;;2.00;99.90;;;;;;5030051;28;20479;-53
2020/12/29 02:49:55;;;;;;;1.47;1.37;;;2.00;99.90;;;;;;5029790;28;20977;-54
2020/12/29 02:52:22;;;;;;;1.87;1.57;;;1.60;99.90;;;;;;5028883;28;20455;-53
2020/12/29 02:54:48;;;;;;;3.33;1.37;;;1.50;99.90;;;;;;5030618;28;20449;-54
2020/12/29 02:57:16;;;;;;;2.50;1.13;;;1.60;99.90;;;;;;5029923;28;21260;-53
2020/12/29 02:59:42;;;;;;;2.80;1.90;;;1.50;99.90;;;;;;5029152;28;20458;-54
2020/12/29 03:02:08;;;;;;;1.83;1.73;;;1.40;99.90;;;;;;5030106;28;20452;-54
2020/12/29 03:04:35;;;;;;;3.33;1.50;;;1.40;99.90;;;;;;5030336;28;21125;-53
2020/12/29 03:07:01;;;;;;;2.77;1.67;;;1.40;99.90;;;;;;5029818;28;20468;-54
2020/12/29 03:09:28;;;;;;;2.07;1.40;;;1.40;99.90;;;;;;5029798;28;20448;-53
2020/12/29 03:11:54;;;;;;;2.63;1.53;;;1.30;99.90;;;;;;5030158;28;20478;-54
2020/12/29 03:14:23;;;;;;;2.33;1.70;;;1.20;99.90;;;;;;5024277;28;20449;-53
2020/12/29 03:16:50;;;;;;;1.70;1.60;;;1.40;99.90;;;;;;5029847;28;20482;-53
2020/12/29 03:19:17;;;;;;;2.10;1.60;;;1.40;99.90;;;;;;5029789;28;20461;-53
2020/12/29 03:21:44;;;;;;;3.97;2.90;;;1.50;99.90;;;;;;5029702;28;20455;-54
2020/12/29 03:24:12;;;;;;;2.80;2.13;;;1.70;99.90;;;;;;5029950;28;20455;-53
2020/12/29 03:26:38;;;;;;;3.80;2.10;;;1.60;99.90;;;;;;5030030;28;20493;-53
2020/12/29 03:29:06;;;;;;;2.83;1.80;;;1.60;99.90;;;;;;5028354;28;20452;-53
2020/12/29 03:31:35;;;;;;;3.20;2.40;;;1.70;99.90;;;;;;5029615;28;20460;-54
2020/12/29 03:34:02;;;;;;;2.37;1.57;;;1.70;99.90;;;;;;5030122;28;20525;-53
2020/12/29 03:36:28;;;;;;;3.10;1.90;;;1.50;99.90;;;;;;5029515;28;20469;-53
2020/12/29 03:38:55;;;;;;;2.70;2.17;;;1.60;99.90;;;;;;5028907;28;20456;-53
2020/12/29 03:41:21;;;;;;;2.20;1.90;;;1.50;99.90;;;;;;5029674;28;20457;-54
2020/12/29 03:43:48;;;;;;;3.00;2.03;;;1.30;99.90;;;;;;5029445;28;20423;-53
2020/12/29 03:46:14;;;;;;;2.70;1.93;;;1.30;99.90;;;;;;5029207;28;20673;-54
2020/12/29 03:48:42;;;;;;;3.60;1.60;;;1.40;99.90;;;;;;5029437;28;20452;-53
2020/12/29 03:51:08;;;;;;;2.30;1.50;;;1.50;99.90;;;;;;5029216;28;20981;-54
2020/12/29 03:53:35;;;;;;;1.93;1.70;;;1.60;99.90;;;;;;5027708;28;20454;-54
2020/12/29 03:56:01;;;;;;;1.80;1.53;;;1.60;99.90;;;;;;5029617;28;20445;-54
2020/12/29 03:58:28;;;;;;;1.50;1.30;;;1.50;99.90;;;;;;5029675;28;20460;-53
2020/12/29 04:00:54;;;;;;;2.00;1.30;;;1.50;99.90;;;;;;5029238;28;20452;-54
2020/12/29 04:03:21;;;;;;;1.80;1.70;;;1.60;99.90;;;;;;5029433;28;20965;-54
2020/12/29 04:05:48;;;;;;;1.93;1.60;;;1.60;99.90;;;;;;5028989;28;20518;-54
2020/12/29 04:08:15;;;;;;;1.83;1.60;;;1.50;99.90;;;;;;5029122;28;20448;-53
2020/12/29 04:10:41;;;;;;;1.83;1.30;;;1.60;99.90;;;;;;5028913;28;20451;-54
2020/12/29 04:13:07;;;;;;;2.03;1.60;;;1.60;99.90;;;;;;5029575;28;20452;-54
2020/12/29 04:15:34;;;;;;;2.50;1.47;;;1.50;99.90;;;;;;5029367;28;20441;-54
2020/12/29 04:18:00;;;;;;;1.70;1.60;;;1.50;99.90;;;;;;5032583;28;20468;-54
2020/12/29 04:20:27;;;;;;;2.83;1.67;;;1.40;99.90;;;;;;5032815;28;20452;-54
2020/12/29 04:22:54;;;;;;;1.60;1.50;;;1.40;99.90;;;;;;5032532;28;20448;-54
2020/12/29 04:25:21;;;;;;;1.60;1.50;;;1.40;99.90;;;;;;5032940;28;20479;-54
2020/12/29 04:27:47;;;;;;;1.57;1.37;;;1.30;99.90;;;;;;5033244;28;20476;-53
2020/12/29 04:30:14;;;;;;;1.77;1.67;;;1.30;99.90;;;;;;5032892;28;20522;-54
2020/12/29 04:32:40;;;;;;;2.10;1.83;;;1.30;99.90;;;;;;5032983;28;20482;-54
2020/12/29 04:35:08;;;;;;;1.77;1.67;;;1.30;99.90;;;;;;5032666;28;20539;-53
2020/12/29 04:37:34;;;;;;;1.57;1.40;;;1.30;99.90;;;;;;5032238;28;20476;-54
2020/12/29 04:40:03;;;;;;;1.70;1.60;;;1.30;99.90;;;;;;5032181;28;20455;-54
2020/12/29 04:42:29;;;;;;;2.77;1.73;;;1.20;99.90;;;;;;5032225;28;20961;-54
2020/12/29 04:44:56;;;;;;;2.70;1.90;;;1.10;99.90;;;;;;5032890;28;20534;-54
2020/12/29 04:47:27;;;;;;;3.10;2.00;;;1.10;99.90;;;;;;5032308;28;20514;-53
2020/12/29 04:49:54;;;;;;;2.47;2.03;;;1.10;99.90;;;;;;5032176;28;20531;-53
2020/12/29 04:52:22;;;;;;;3.73;2.13;;;1.10;99.90;;;;;;5032281;28;20459;-54
2020/12/29 04:54:52;;;;;;;2.70;1.83;;;1.10;99.90;;;;;;5031985;28;20920;-54
2020/12/29 04:57:20;;;;;;;5.90;3.63;;;1.10;99.90;;;;;;5032914;28;20853;-54
2020/12/29 04:59:46;;;;;;;6.73;3.33;;;0.90;99.90;;;;;;5032034;28;20539;-54
2020/12/29 05:02:13;;;;;;;5.80;2.80;;;0.90;99.90;;;;;;5032371;28;20459;-53
2020/12/29 05:04:40;;;;;;;5.30;2.87;;;0.90;99.90;;;;;;5032258;28;20454;-54
2020/12/29 05:07:06;;;;;;;6.13;3.57;;;0.90;99.90;;;;;;5031282;28;20468;-53
2020/12/29 05:09:33;;;;;;;5.00;3.30;;;1.00;99.90;;;;;;5031891;28;20868;-53
2020/12/29 05:11:59;;;;;;;3.70;2.47;;;0.80;99.90;;;;;;5032525;28;20456;-54
2020/12/29 05:14:28;;;;;;;3.60;2.70;;;0.70;99.90;;;;;;5032205;28;20451;-54
2020/12/29 05:16:55;;;;;;;5.67;3.70;;;0.70;99.90;;;;;;5031709;28;20479;-53
2020/12/29 05:19:24;;;;;;;8.27;4.70;;;0.90;99.90;;;;;;5032039;28;20458;-53
2020/12/29 05:21:51;;;;;;;9.27;3.93;;;0.80;99.90;;;;;;5030886;28;21168;-53
2020/12/29 05:24:20;;;;;;;6.83;3.40;;;0.90;99.90;;;;;;5031827;28;20449;-54
2020/12/29 05:26:48;;;;;;;6.20;3.10;;;0.90;99.90;;;;;;5030965;28;20487;-53
2020/12/29 05:29:15;;;;;;;6.30;3.13;;;0.80;99.90;;;;;;5023581;28;20459;-53
2020/12/29 05:31:44;;;;;;;5.70;3.20;;;0.80;99.90;;;;;;5031980;28;20877;-54
2020/12/29 05:34:19;;;;;;;3.37;2.93;;;0.80;99.90;;;;;;5031369;28;21160;-54
2020/12/29 05:36:46;;;;;;;2.30;1.80;;;0.80;99.90;;;;;;5031655;28;20474;-54
2020/12/29 05:39:13;;;;;;;2.50;1.97;;;0.60;99.90;;;;;;5031559;28;20638;-53
2020/12/29 05:41:42;;;;;;;3.00;2.00;;;0.70;99.90;;;;;;5031435;28;21079;-54
2020/12/29 05:44:12;;;;;;;3.30;2.50;;;0.90;99.90;;;;;;5031629;28;20449;-53
2020/12/29 05:46:39;;;;;;;3.23;2.50;;;0.90;99.90;;;;;;5031404;28;20487;-53
2020/12/29 05:49:07;;;;;;;4.80;2.90;;;1.00;99.90;;;;;;5030964;28;20462;-53
2020/12/29 05:51:34;;;;;;;3.80;2.77;;;0.90;99.90;;;;;;5029680;28;20478;-53
2020/12/29 05:54:03;;;;;;;8.10;3.20;;;0.90;99.90;;;;;;5032105;28;20594;-53
2020/12/29 05:56:34;;;;;;;2.60;2.20;;;0.80;99.90;;;;;;5031357;28;20525;-53
2020/12/29 05:59:03;;;;;;;3.43;2.70;;;0.90;99.90;;;;;;5031232;28;20823;-52
2020/12/29 06:01:36;;;;;;;10.57;4.57;;;0.90;99.90;;;;;;5031728;28;20444;-54
2020/12/29 06:04:03;;;;;;;3.13;2.33;;;0.70;99.90;;;;;;5031477;28;20456;-53
2020/12/29 06:06:34;;;;;;;4.00;2.70;;;0.60;99.90;;;;;;5031122;28;20575;-53
2020/12/29 06:09:07;;;;;;;2.60;2.00;;;0.90;99.90;;;;;;5031156;28;20981;-53
2020/12/29 06:11:39;;;;;;;3.00;2.10;;;0.80;99.90;;;;;;5024156;28;20459;-53
2020/12/29 06:14:13;;;;;;;2.83;1.90;;;0.70;99.90;;;;;;5030792;28;20463;-54
2020/12/29 06:16:41;;;;;;;4.80;1.80;;;1.00;99.90;;;;;;5031653;28;20530;-53
2020/12/29 06:19:23;;;;;;;2.67;1.93;;;1.00;99.90;;;;;;5030858;28;20455;-53
2020/12/29 06:22:04;;;;;;;4.93;3.10;;;0.90;99.90;;;;;;5029322;28;20481;-53
2020/12/29 06:24:32;;;;;;;3.43;2.47;;;0.80;99.90;;;;;;5029231;28;20462;-53
2020/12/29 06:27:00;;;;;;;4.07;2.30;;;0.50;99.90;;;;;;5030405;28;20475;-54
2020/12/29 06:29:33;;;;;;;4.30;2.40;;;0.60;99.90;;;;;;5029755;28;20531;-54
2020/12/29 06:32:11;;;;;;;4.43;3.10;;;0.60;99.90;;;;;;5030135;28;20452;-54
2020/12/29 06:34:38;;;;;;;3.43;2.97;;;0.60;99.90;;;;;;5029573;28;20460;-54
2020/12/29 06:37:26;;;;;;;8.00;3.13;;;0.70;99.90;;;;;;5031016;28;20478;-53
2020/12/29 06:39:57;;;;;;;8.90;3.97;;;0.70;99.90;;;;;;5029613;28;20451;-53
2020/12/29 06:42:23;;;;;;;7.27;3.40;;;0.70;99.90;;;;;;5030093;28;20451;-53
2020/12/29 06:44:53;;;;;;;5.90;3.47;;;0.80;99.90;;;;;;5029760;28;20452;-51
2020/12/29 06:47:23;;;;;;;5.63;3.60;;;0.70;99.90;;;;;;5030465;28;20529;-51
2020/12/29 06:49:51;;;;;;;3.13;2.77;;;0.70;99.90;;;;;;5030507;28;20479;-53
2020/12/29 06:52:27;;;;;;;4.37;2.93;;;0.70;99.90;;;;;;5030755;28;20459;-53
2020/12/29 06:54:56;;;;;;;5.80;5.10;;;0.60;99.90;;;;;;5030340;28;20976;-53
2020/12/29 06:57:24;;;;;;;6.77;3.87;;;0.50;99.90;;;;;;5030260;28;20919;-53
2020/12/29 06:59:50;;;;;;;4.70;3.53;;;0.50;99.90;;;;;;5028445;28;20483;-53
2020/12/29 07:02:20;;;;;;;5.50;3.70;;;0.40;99.90;;;;;;5030664;28;20460;-51
2020/12/29 07:04:54;;;;;;;3.80;2.73;;;0.50;99.90;;;;;;5029046;28;20533;-51
2020/12/29 07:07:27;;;;;;;3.20;2.67;;;0.50;99.90;;;;;;5030184;28;20482;-52
2020/12/29 07:10:09;;;;;;;5.57;3.13;;;0.60;99.90;;;;;;5029940;28;20538;-51
2020/12/29 07:12:36;;;;;;;5.63;3.00;;;0.50;99.90;;;;;;5030257;28;20470;-51
2020/12/29 07:15:04;;;;;;;4.57;2.43;;;0.60;99.90;;;;;;5030105;28;20521;-51
2020/12/29 07:17:32;;;;;;;2.70;2.00;;;0.60;99.90;;;;;;5030329;28;20468;-51
2020/12/29 07:19:58;;;;;;;2.60;2.20;;;0.70;99.90;;;;;;5029833;28;20476;-52
2020/12/29 07:22:27;;;;;;;4.50;2.70;;;0.80;99.90;;;;;;5029069;28;20954;-51
2020/12/29 07:24:56;;;;;;;2.90;2.00;;;0.70;99.90;;;;;;5029337;28;20198;-51
2020/12/29 07:27:30;;;;;;;6.77;2.60;;;0.70;99.90;;;;;;5029808;28;20475;-51
2020/12/29 07:29:58;;;;;;;2.67;2.10;;;0.70;99.90;;;;;;5026407;28;20566;-52
2020/12/29 07:32:25;;;;;;;3.03;2.50;;;0.70;99.90;;;;;;5027391;28;20448;-51
2020/12/29 07:34:52;;;;;;;2.60;1.80;;;1.00;99.90;;;;;;5029343;28;20829;-51
2020/12/29 07:37:20;;;;;;;2.83;1.83;;;1.30;99.90;;;;;;5029436;28;20471;-52
2020/12/29 07:39:47;;;;;;;2.83;1.67;;;1.30;99.90;;;;;;5028900;28;20456;-51
2020/12/29 07:42:15;;;;;;;2.60;2.20;;;1.20;99.90;;;;;;5028636;28;20460;-51
2020/12/29 07:44:43;;;;;;;3.87;2.13;;;1.20;99.90;;;;;;5029224;28;20455;-51
2020/12/29 07:47:10;;;;;;;2.23;1.80;;;1.30;99.90;;;;;;5029101;28;20480;-51
2020/12/29 07:49:36;;;;;;;1.70;1.47;;;1.60;99.90;;;;;;5028941;28;20499;-52
2020/12/29 07:52:03;;;;;;;2.13;1.50;;;1.70;99.90;;;;;;5032975;28;20448;-52
2020/12/29 07:54:30;;;;;;;2.33;1.47;;;1.90;99.90;;;;;;5033547;28;20460;-51
2020/12/29 07:56:57;;;;;;;2.40;1.43;;;2.10;99.90;;;;;;5033192;28;20468;-50
2020/12/29 07:59:23;;;;;;;2.30;1.37;;;2.20;99.90;;;;;;5028093;28;20455;-51
2020/12/29 08:01:52;;;;;;;1.57;1.23;;;2.40;99.90;;;;;;5033353;28;20817;-51
2020/12/29 08:04:30;;;;;;;1.10;1.00;;;2.50;99.90;;;;;;5032893;28;20485;-50
2020/12/29 08:06:57;;;;;;;2.97;1.50;;;2.50;99.90;;;;;;5032737;28;20513;-52
2020/12/29 08:09:24;;;;;;;1.63;1.30;;;2.60;99.90;;;;;;5032112;28;20485;-51
2020/12/29 08:11:51;;;;;;;2.83;1.60;;;2.60;99.90;;;;;;5027912;28;20452;-51
2020/12/29 08:14:17;;;;;;;2.03;1.40;;;2.60;99.90;;;;;;5032993;28;20475;-51
2020/12/29 08:16:44;;;;;;;3.20;1.80;;;2.60;99.90;;;;;;5032479;28;20467;-50
2020/12/29 08:19:11;;;;;;;2.20;1.97;;;2.70;99.90;;;;;;5032039;28;21043;-51
2020/12/29 08:21:39;;;;;;;2.60;1.73;;;2.60;99.90;;;;;;5033022;28;20455;-50
2020/12/29 08:24:06;;;;;;;2.20;1.77;;;2.70;99.90;;;;;;5032763;28;20452;-51
2020/12/29 08:26:33;;;;;;;2.77;2.00;;;2.80;99.90;;;;;;5032451;28;20545;-52
2020/12/29 08:29:00;;;;;;;3.70;2.03;;;2.80;99.90;;;;;;5032550;28;20456;-54
2020/12/29 08:31:28;;;;;;;2.50;2.00;;;2.70;99.90;;;;;;5032407;28;20978;-53
2020/12/29 08:33:55;;;;;;;3.20;2.27;;;2.60;99.90;;;;;;5032929;28;20454;-52
2020/12/29 08:36:27;;;;;;;4.53;2.70;;;2.50;99.90;;;;;;5031980;28;20912;-52
2020/12/29 08:39:17;;;;;;;4.53;2.80;;;2.30;99.90;;;;;;5032403;28;20447;-53
2020/12/29 08:41:51;;;;;;;4.23;3.00;;;2.30;99.90;;;;;;5025203;28;20452;-51
2020/12/29 08:44:18;;;;;;;7.33;3.37;;;2.60;99.90;;;;;;5032794;28;20505;-51
2020/12/29 08:46:45;;;;;;;4.70;3.20;;;3.10;99.90;;;;;;5024825;28;20491;-51
2020/12/29 08:49:11;;;;;;;4.33;2.80;;;3.50;99.90;;;;;;5032358;28;20461;-51
2020/12/29 08:51:41;;;;;;;4.40;3.20;;;3.80;99.90;;;;;;5031847;28;20456;-51
2020/12/29 08:54:10;;;;;;;3.80;2.90;;;4.10;99.90;;;;;;5060986;22;21023;-55
2020/12/29 08:56:37;;;;;;;4.97;2.80;;;4.20;99.90;;;;;;5051609;28;21271;-55
2020/12/29 08:59:13;;;;;;;8.57;5.60;;;4.30;99.90;;;;;;5051834;28;20440;-55
2020/12/29 09:01:41;;;;;;;8.37;6.17;;;4.30;99.90;;;;;;5051684;28;21018;-55
2020/12/29 09:04:27;;;;;;;9.67;7.40;;;4.70;99.90;;;;;;5051986;28;20468;-56
2020/12/29 09:06:59;;;;;;;5.17;3.83;;;4.50;99.90;;;;;;5051827;28;20524;-54
2020/12/29 09:09:26;;;;;;;10.30;6.90;;;4.40;99.90;;;;;;5045462;28;20444;-55
2020/12/29 09:12:15;;;;;;;10.33;8.00;;;4.30;99.90;;;;;;5065249;28;20452;-56
2020/12/29 09:14:56;;;;;;;9.20;7.40;;;4.00;99.90;;;;;;5063186;28;20475;-56
2020/12/29 09:17:23;;;;;;;5.70;4.50;;;3.90;99.90;;;;;;5060284;28;20835;-56
2020/12/29 09:20:11;;;;;;;8.20;5.67;;;3.90;99.90;;;;;;5064916;28;20448;-56
2020/12/29 09:23:02;;;;;;;5.10;4.03;;;4.00;99.90;;;;;;5062787;28;20447;-55
2020/12/29 09:25:35;;;;;;;7.27;4.20;;;4.00;99.90;;;;;;5063956;28;20507;-56
2020/12/29 09:28:09;;;;;;;7.50;4.20;;;4.10;99.90;;;;;;5058861;28;20538;-56
2020/12/29 09:30:36;;;;;;;4.73;3.60;;;4.10;99.90;;;;;;5063319;28;20871;-56
2020/12/29 09:33:03;;;;;;;5.70;3.63;;;4.20;99.90;;;;;;5063167;28;20459;-56
2020/12/29 09:35:29;;;;;;;7.40;4.13;;;4.10;99.90;;;;;;5059376;28;20464;-56
2020/12/29 09:37:59;;;;;;;11.93;4.60;;;4.00;99.90;;;;;;5049507;28;20482;-55
2020/12/29 09:40:26;;;;;;;6.73;4.07;;;3.60;99.90;;;;;;5048723;28;20468;-55
2020/12/29 09:42:53;;;;;;;3.83;2.97;;;3.50;99.90;;;;;;5049926;28;20543;-56
2020/12/29 09:45:21;;;;;;;6.17;3.40;;;3.60;99.90;;;;;;5053917;28;20494;-56
2020/12/29 09:47:47;;;;;;;6.50;3.40;;;3.60;99.90;;;;;;5051170;28;20538;-56
2020/12/29 09:50:15;;;;;;;4.90;3.60;;;3.70;99.90;;;;;;5050849;28;20451;-56
2020/12/29 09:52:41;;;;;;;4.90;3.63;;;3.90;99.90;;;;;;5050783;28;20455;-56
2020/12/29 09:55:09;;;;;;;3.17;2.87;;;4.10;99.90;;;;;;5050292;28;20471;-56
2020/12/29 09:57:36;;;;;;;8.97;3.63;;;4.40;99.90;;;;;;5050509;28;20471;-56
2020/12/29 10:00:03;;;;;;;3.57;3.07;;;4.50;99.90;;;;;;5050965;28;20453;-56
2020/12/29 10:02:30;;;;;;;6.90;3.97;;;4.50;99.90;;;;;;5051411;28;20470;-56
2020/12/29 10:04:56;;;;;;;7.57;4.40;;;4.60;99.90;;;;;;5049740;28;20471;-56
2020/12/29 10:07:23;;;;;;;9.27;4.87;;;4.70;99.90;;;;;;5050817;28;20456;-55
2020/12/29 10:09:50;;;;;;;6.50;4.80;;;4.70;99.90;;;;;;5049338;28;20448;-55
2020/12/29 10:12:17;;;;;;;4.73;3.17;;;4.60;99.90;;;;;;5042880;28;20546;-56
2020/12/29 10:14:43;;;;;;;6.10;4.37;;;4.60;99.90;;;;;;5049815;28;20554;-56
2020/12/29 10:17:10;;;;;;;5.03;4.27;;;4.90;99.90;;;;;;5050316;28;20453;-56
2020/12/29 10:19:36;;;;;;;4.93;3.97;;;5.10;99.90;;;;;;5049764;28;20451;-55
2020/12/29 10:22:03;;;;;;;9.40;4.63;;;5.20;99.90;;;;;;5050151;28;20462;-56
2020/12/29 10:24:30;;;;;;;7.23;4.60;;;5.30;99.90;;;;;;5050674;28;20857;-56
2020/12/29 10:26:57;;;;;;;5.10;3.70;;;5.20;99.90;;;;;;5050870;28;20474;-56
2020/12/29 10:29:25;;;;;;;8.60;3.70;;;5.10;99.90;;;;;;5049188;28;20466;-56
2020/12/29 10:31:51;;;;;;;5.00;3.53;;;5.30;99.90;;;;;;5049613;28;20452;-56
2020/12/29 10:34:18;;;;;;;6.60;3.33;;;5.20;99.90;;;;;;5044513;28;20483;-56
2020/12/29 10:36:46;;;;;;;4.40;3.37;;;5.20;99.90;;;;;;5051053;28;20443;-55
2020/12/29 10:39:13;;;;;;;4.97;3.50;;;5.20;99.90;;;;;;5049569;28;20451;-56
2020/12/29 10:41:40;;;;;;;6.90;4.00;;;5.00;99.90;;;;;;5050314;28;20452;-55
2020/12/29 10:44:10;;;;;;;6.20;4.57;;;5.10;99.90;;;;;;5049401;28;20901;-56
2020/12/29 10:46:38;;;;;;;7.03;5.00;;;4.90;99.90;;;;;;5050271;28;20488;-56
2020/12/29 10:49:07;;;;;;;7.60;4.67;;;4.90;99.90;;;;;;5049896;28;20475;-55
2020/12/29 10:51:34;;;;;;;8.20;4.87;;;4.90;99.90;;;;;;5049041;28;20474;-55
2020/12/29 10:54:00;;;;;;;6.63;4.43;;;4.90;99.90;;;;;;5049518;28;20475;-55
2020/12/29 10:56:27;;;;;;;4.30;3.10;;;4.90;99.90;;;;;;5048736;28;20456;-55
2020/12/29 10:58:53;;;;;;;4.93;2.80;;;5.10;99.90;;;;;;5048959;28;20498;-56
2020/12/29 11:01:21;;;;;;;6.30;3.40;;;5.10;99.90;;;;;;5049699;28;20467;-56
2020/12/29 11:03:50;;;;;;;7.60;4.37;;;5.30;99.90;;;;;;5049419;28;20470;-57
2020/12/29 11:06:17;;;;;;;4.90;3.30;;;5.40;99.90;;;;;;5049051;28;20487;-56
2020/12/29 11:08:44;;;;;;;6.60;3.57;;;5.40;99.90;;;;;;5049537;28;20455;-56
2020/12/29 11:11:11;;;;;;;7.43;4.20;;;5.60;99.90;;;;;;5049714;28;20968;-56
2020/12/29 11:13:38;;;;;;;5.80;3.23;;;5.70;99.90;;;;;;5042133;28;20452;-56
2020/12/29 11:16:04;;;;;;;5.00;3.00;;;5.60;99.90;;;;;;5048779;28;20521;-56
2020/12/29 11:18:31;;;;;;;2.13;1.73;;;5.60;99.90;;;;;;5049590;28;20444;-56
2020/12/29 11:20:58;;;;;;;4.70;3.40;;;5.90;99.90;;;;;;5049231;28;20857;-56
2020/12/29 11:23:25;;;;;;;6.77;4.00;;;6.00;99.90;;;;;;5049494;28;20527;-57
2020/12/29 11:25:51;;;;;;;7.10;3.80;;;5.80;99.90;;;;;;5048324;28;20481;-56
2020/12/29 11:28:18;;;;;;;4.70;3.53;;;5.60;99.90;;;;;;5053965;28;20461;-56
2020/12/29 11:30:44;;;;;;;4.90;3.80;;;5.80;99.90;;;;;;5049188;28;20448;-56
2020/12/29 11:33:11;;;;;;;7.07;3.60;;;6.00;99.90;;;;;;5050013;28;20545;-56
2020/12/29 11:35:37;;;;;;;15.07;4.10;;;6.20;99.90;;;;;;5048820;28;20545;-57
2020/12/29 11:38:05;;;;;;;5.30;3.73;;;6.20;99.90;;;;;;5047417;28;20451;-56
2020/12/29 11:40:31;;;;;;;5.23;3.60;;;6.30;99.90;;;;;;5049743;28;20455;-56
2020/12/29 11:42:58;;;;;;;7.00;4.00;;;6.40;99.90;;;;;;5044953;28;20444;-56
2020/12/29 11:45:24;;;;;;;3.60;2.87;;;6.40;99.90;;;;;;5046429;28;20480;-56
2020/12/29 11:47:50;;;;;;;6.03;3.43;;;6.40;99.90;;;;;;5050029;28;20484;-57
2020/12/29 11:50:17;;;;;;;5.17;3.00;;;6.60;99.90;;;;;;5048974;28;20457;-56
2020/12/29 11:52:43;;;;;;;3.83;2.67;;;6.50;99.90;;;;;;5049162;28;21082;-57
2020/12/29 11:55:11;;;;;;;2.97;2.40;;;6.60;99.90;;;;;;5049468;28;21006;-57
2020/12/29 11:57:37;;;;;;;5.83;3.60;;;6.60;99.90;;;;;;5049314;28;20449;-56
2020/12/29 12:00:07;;;;;;;3.73;2.40;;;6.60;99.90;;;;;;5049612;28;20467;-56
2020/12/29 12:02:34;;;;;;;5.23;2.87;;;6.60;99.90;;;;;;5049494;28;20524;-56
2020/12/29 12:05:00;;;;;;;6.00;2.73;;;6.60;99.90;;;;;;5049152;28;20449;-57
2020/12/29 12:07:27;;;;;;;5.30;4.03;;;6.70;99.90;;;;;;5048875;28;20857;-56
2020/12/29 12:09:53;;;;;;;6.00;4.43;;;6.80;99.90;;;;;;5048805;28;21022;-56
2020/12/29 12:12:21;;;;;;;7.73;4.70;;;6.80;99.90;;;;;;5049509;28;20447;-57
2020/12/29 12:14:47;;;;;;;7.87;4.60;;;6.60;99.90;;;;;;5049315;28;20475;-57
2020/12/29 12:17:14;;;;;;;11.00;4.70;;;6.50;99.90;;;;;;5043996;28;20492;-57
2020/12/29 12:19:40;;;;;;;9.93;3.63;;;6.30;99.90;;;;;;5046300;28;20958;-56
2020/12/29 12:22:07;;;;;;;5.40;3.60;;;6.60;99.90;;;;;;5049113;28;20465;-56
2020/12/29 12:24:34;;;;;;;7.23;4.00;;;6.60;99.90;;;;;;5047613;28;20490;-56
2020/12/29 12:27:00;;;;;;;7.00;4.70;;;6.70;99.90;;;;;;5047928;28;20479;-56
2020/12/29 12:29:28;;;;;;;6.13;4.30;;;6.70;99.90;;;;;;5048458;28;20451;-56
2020/12/29 12:31:54;;;;;;;10.00;3.97;;;6.50;99.90;;;;;;5050242;28;20445;-56
2020/12/29 12:34:21;;;;;;;7.57;3.90;;;6.40;99.90;;;;;;5049066;28;20862;-56
2020/12/29 12:36:47;;;;;;;5.90;4.20;;;6.50;99.90;;;;;;5047778;28;21070;-56
2020/12/29 12:39:14;;;;;;;9.70;4.77;;;6.70;99.90;;;;;;5051525;28;20520;-56
2020/12/29 12:41:42;;;;;;;8.90;5.10;;;6.60;99.90;;;;;;5049940;28;20455;-56
2020/12/29 12:44:12;;;;;;;6.63;4.67;;;6.50;99.90;;;;;;5052632;28;20925;-55
2020/12/29 12:46:42;;;;;;;6.47;4.43;;;6.50;99.90;;;;;;5053436;28;20483;-56
2020/12/29 12:49:11;;;;;;;7.47;4.50;;;6.60;99.90;;;;;;5051861;28;20509;-56
2020/12/29 12:51:44;;;;;;;11.77;5.70;;;6.70;99.90;;;;;;5051093;28;20518;-56
2020/12/29 12:54:11;;;;;;;8.23;4.70;;;6.70;99.90;;;;;;5053717;28;20483;-56
2020/12/29 12:56:42;;;;;;;5.93;4.67;;;6.80;99.90;;;;;;5052700;28;20474;-56
2020/12/29 12:59:09;;;;;;;5.47;4.03;;;6.70;99.90;;;;;;5048025;28;20494;-56
2020/12/29 13:01:35;;;;;;;6.67;3.57;;;6.70;99.90;;;;;;5049319;28;20509;-55